createdAt,value
2022-12-16T00:01:51.181Z,70.55
2022-12-16T00:04:20.121Z,79.72
2022-12-16T00:06:48.424Z,90.32
2022-12-16T00:09:18.280Z,92.00
2022-12-16T00:11:46.533Z,85.70
2022-12-16T00:14:14.810Z,86.28
2022-12-16T00:16:43.076Z,93.40
2022-12-16T00:19:11.383Z,93.68
2022-12-16T00:21:39.570Z,91.57
2022-12-16T00:24:07.728Z,87.80
2022-12-16T00:26:38.209Z,86.50
2022-12-16T00:29:07.603Z,91.47
2022-12-16T00:31:35.857Z,85.43
2022-12-16T00:34:04.260Z,86.93
2022-12-16T00:36:32.443Z,84.88
2022-12-16T00:39:00.677Z,90.35
2022-12-16T00:41:28.857Z,84.38
2022-12-16T00:43:58.435Z,84.40
2022-12-16T00:46:26.799Z,86.80
2022-12-16T00:48:55.070Z,93.88
2022-12-16T00:51:23.565Z,100.10
2022-12-16T00:53:51.786Z,96.80
2022-12-16T00:56:20.683Z,95.80
2022-12-16T00:58:48.887Z,102.28
2022-12-16T01:01:18.671Z,94.05
2022-12-16T01:03:47.053Z,96.20
2022-12-16T01:06:17.343Z,93.70
2022-12-16T01:08:48.780Z,93.68
2022-12-16T01:11:18.268Z,88.13
2022-12-16T01:13:47.400Z,88.25
2022-12-16T01:16:15.996Z,91.53
2022-12-16T01:18:45.742Z,81.40
2022-12-16T01:21:16.105Z,88.78
2022-12-16T01:23:44.558Z,110.03
2022-12-16T01:26:17.377Z,104.75
2022-12-16T01:28:45.714Z,104.93
2022-12-16T01:31:16.200Z,104.95
2022-12-16T01:33:46.076Z,99.88
2022-12-16T01:36:14.346Z,110.32
2022-12-16T01:38:44.790Z,107.60
2022-12-16T01:41:14.284Z,106.10
2022-12-16T01:43:45.364Z,107.05
2022-12-16T01:46:20.093Z,107.60
2022-12-16T01:48:53.750Z,98.22
2022-12-16T01:51:27.854Z,98.93
2022-12-16T01:54:00.182Z,102.15
2022-12-16T01:56:31.889Z,94.45
2022-12-16T01:59:01.845Z,93.88
2022-12-16T02:01:30.155Z,92.03
2022-12-16T02:04:03.921Z,85.03
2022-12-16T02:06:33.073Z,84.43
2022-12-16T02:09:07.271Z,88.68
2022-12-16T02:11:53.499Z,84.95
2022-12-16T02:14:42.652Z,80.82
2022-12-16T02:17:20.622Z,81.93
2022-12-16T02:20:09.073Z,82.55
2022-12-16T02:22:48.508Z,79.03
2022-12-16T02:25:43.470Z,77.82
2022-12-16T02:28:22.789Z,80.80
2022-12-16T02:31:07.007Z,79.90
2022-12-16T02:34:01.460Z,78.85
2022-12-16T02:36:54.766Z,75.95
2022-12-16T02:39:26.152Z,82.25
2022-12-16T02:42:00.606Z,78.47
2022-12-16T02:44:45.482Z,72.72
2022-12-16T02:47:15.046Z,76.35
2022-12-16T02:49:51.588Z,76.28
2022-12-16T02:52:22.855Z,74.05
2022-12-16T02:54:55.464Z,72.57
2022-12-16T02:57:51.606Z,69.32
2022-12-16T03:00:22.321Z,67.75
2022-12-16T03:02:58.978Z,63.88
2022-12-16T03:05:32.254Z,56.40
2022-12-16T03:08:03.809Z,56.00
2022-12-16T03:10:38.781Z,53.15
2022-12-16T03:13:09.850Z,54.67
2022-12-16T03:15:40.093Z,49.03
2022-12-16T03:18:12.614Z,50.03
2022-12-16T03:20:46.723Z,44.30
2022-12-16T03:23:20.009Z,40.80
2022-12-16T03:25:51.919Z,41.15
2022-12-16T03:28:32.787Z,42.25
2022-12-16T03:31:09.047Z,38.33
2022-12-16T03:33:43.722Z,38.97
2022-12-16T03:36:16.848Z,38.40
2022-12-16T03:38:46.997Z,37.00
2022-12-16T03:41:17.566Z,37.15
2022-12-16T03:43:46.218Z,37.15
2022-12-16T03:46:15.296Z,34.20
2022-12-16T03:48:51.811Z,34.03
2022-12-16T03:51:20.802Z,33.20
2022-12-16T03:53:49.179Z,33.17
2022-12-16T03:56:17.965Z,33.78
2022-12-16T03:58:47.137Z,36.92
2022-12-16T04:01:15.959Z,37.10
2022-12-16T04:03:44.299Z,34.40
2022-12-16T04:06:18.937Z,33.70
2022-12-16T04:08:47.660Z,34.30
2022-12-16T04:11:33.995Z,33.85
2022-12-16T04:14:19.864Z,31.48
2022-12-16T04:17:05.517Z,30.13
2022-12-16T04:19:55.150Z,35.65
2022-12-16T04:22:45.033Z,34.20
2022-12-16T04:25:16.691Z,38.25
2022-12-16T04:27:47.194Z,37.40
2022-12-16T04:30:23.060Z,40.33
2022-12-16T04:33:12.667Z,39.25
2022-12-16T04:35:58.536Z,37.97
2022-12-16T04:38:45.754Z,36.30
2022-12-16T04:41:31.803Z,41.58
2022-12-16T04:44:18.695Z,43.65
2022-12-16T04:47:04.970Z,39.78
2022-12-16T04:49:50.864Z,43.05
2022-12-16T04:52:37.342Z,38.78
2022-12-16T04:55:25.994Z,38.88
2022-12-16T04:58:12.506Z,41.88
2022-12-16T05:00:58.903Z,42.40
2022-12-16T05:03:45.456Z,40.20
2022-12-16T05:06:31.099Z,40.17
2022-12-16T05:09:16.942Z,41.70
2022-12-16T05:12:03.888Z,39.70
2022-12-16T05:14:49.724Z,41.30
2022-12-16T05:17:35.082Z,41.42
2022-12-16T05:20:21.002Z,41.75
2022-12-16T05:23:06.346Z,41.17
2022-12-16T05:25:52.243Z,41.80
2022-12-16T05:28:39.334Z,39.60
2022-12-16T05:31:21.398Z,37.78
2022-12-16T05:34:06.816Z,37.75
2022-12-16T05:36:52.572Z,41.38
2022-12-16T05:39:38.776Z,40.45
2022-12-16T05:42:24.259Z,40.03
2022-12-16T05:45:19.502Z,42.03
2022-12-16T05:48:06.779Z,42.60
2022-12-16T05:50:52.676Z,44.88
2022-12-16T05:53:38.241Z,51.20
2022-12-16T05:56:24.564Z,54.25
2022-12-16T05:59:09.996Z,46.75
2022-12-16T06:01:56.953Z,46.08
2022-12-16T06:04:42.527Z,46.67
2022-12-16T06:07:28.231Z,45.83
2022-12-16T06:10:13.772Z,49.70
2022-12-16T06:12:59.684Z,47.92
2022-12-16T06:15:45.080Z,47.95
2022-12-16T06:18:31.928Z,47.60
2022-12-16T06:21:17.479Z,48.90
2022-12-16T06:24:03.327Z,49.58
2022-12-16T06:26:49.193Z,51.40
2022-12-16T06:29:35.108Z,53.72
2022-12-16T06:32:20.405Z,52.28
2022-12-16T06:35:07.582Z,52.85
2022-12-16T06:37:52.788Z,54.53
2022-12-16T06:40:38.360Z,52.58
2022-12-16T06:43:24.329Z,58.30
2022-12-16T06:46:09.822Z,55.67
2022-12-16T06:48:51.912Z,50.50
2022-12-16T06:51:38.850Z,47.70
2022-12-16T06:54:24.713Z,48.28
2022-12-16T06:57:10.521Z,43.85
2022-12-16T06:59:56.461Z,43.67
2022-12-16T07:02:42.273Z,46.60
2022-12-16T07:05:28.377Z,45.97
2022-12-16T07:08:15.454Z,41.00
2022-12-16T07:11:13.888Z,41.72
2022-12-16T07:14:01.758Z,44.40
2022-12-16T07:16:47.416Z,46.85
2022-12-16T07:19:33.502Z,47.15
2022-12-16T07:22:19.250Z,50.00
2022-12-16T07:25:06.410Z,45.10
2022-12-16T07:27:51.764Z,44.90
2022-12-16T07:30:37.153Z,44.35
2022-12-16T07:33:22.566Z,46.80
2022-12-16T07:36:07.835Z,42.30
2022-12-16T07:38:53.267Z,41.90
2022-12-16T07:41:40.067Z,42.00
2022-12-16T07:44:22.084Z,42.22
2022-12-16T07:49:52.378Z,44.00
2022-12-16T07:52:41.338Z,44.25
2022-12-16T07:55:27.825Z,43.97
2022-12-16T07:58:13.747Z,45.28
2022-12-16T08:00:59.335Z,42.53
2022-12-16T08:03:45.255Z,42.50
2022-12-16T08:06:34.845Z,48.53
2022-12-16T08:09:24.516Z,47.70
2022-12-16T08:12:10.489Z,53.53
2022-12-16T08:14:55.905Z,52.95
2022-12-16T08:17:41.792Z,56.58
2022-12-16T08:20:28.338Z,58.95
2022-12-16T08:23:15.292Z,60.65
2022-12-16T08:26:00.820Z,58.10
2022-12-16T08:28:46.812Z,58.78
2022-12-16T08:31:32.517Z,59.17
2022-12-16T08:34:17.996Z,59.22
2022-12-16T08:37:03.407Z,52.50
2022-12-16T08:40:10.727Z,52.33
2022-12-16T08:42:56.683Z,47.88
2022-12-16T08:45:42.420Z,50.53
2022-12-16T08:48:28.253Z,47.17
2022-12-16T08:51:14.233Z,47.38
2022-12-16T08:53:59.642Z,44.55
2022-12-16T08:56:46.754Z,42.97
2022-12-16T08:59:32.242Z,49.70
2022-12-16T09:02:18.084Z,40.40
2022-12-16T09:05:04.354Z,40.03
2022-12-16T09:07:50.008Z,38.42
2022-12-16T09:10:40.243Z,39.53
2022-12-16T09:13:30.528Z,37.85
2022-12-16T09:16:19.492Z,36.60
2022-12-16T09:19:05.950Z,37.35
2022-12-16T09:21:52.116Z,33.40
2022-12-16T09:24:39.719Z,32.13
2022-12-16T09:27:25.342Z,32.28
2022-12-16T09:30:12.539Z,32.00
2022-12-16T09:33:00.431Z,31.77
2022-12-16T09:35:46.452Z,29.85
2022-12-16T09:38:32.344Z,34.55
2022-12-16T09:41:36.354Z,40.00
2022-12-16T09:44:34.657Z,39.28
2022-12-16T09:47:28.983Z,40.15
2022-12-16T09:50:14.875Z,39.65
2022-12-16T09:53:06.835Z,40.00
2022-12-16T09:55:57.230Z,44.03
2022-12-16T09:58:45.912Z,41.17
2022-12-16T10:01:33.256Z,37.20
2022-12-16T10:04:32.753Z,35.83
2022-12-16T10:07:19.731Z,34.65
2022-12-16T10:10:15.484Z,34.55
2022-12-16T10:13:08.422Z,33.55
2022-12-16T10:15:59.452Z,34.10
2022-12-16T10:19:00.874Z,36.17
2022-12-16T10:21:53.835Z,36.90
2022-12-16T10:24:49.159Z,32.60
2022-12-16T10:27:43.715Z,31.13
2022-12-16T10:30:33.010Z,35.67
2022-12-16T10:33:19.334Z,37.27
2022-12-16T10:36:08.345Z,33.20
2022-12-16T10:39:00.667Z,35.83
2022-12-16T10:41:57.421Z,34.77
2022-12-16T10:44:48.532Z,36.93
2022-12-16T10:47:34.437Z,37.30
2022-12-16T10:50:20.311Z,37.40
2022-12-16T10:53:12.475Z,35.03
2022-12-16T10:56:13.279Z,37.77
2022-12-16T10:59:06.905Z,33.37
2022-12-16T11:01:52.974Z,34.93
2022-12-16T11:04:55.647Z,36.63
2022-12-16T11:07:55.266Z,34.60
2022-12-16T11:10:53.920Z,32.27
2022-12-16T11:13:54.647Z,33.57
2022-12-16T11:16:42.794Z,31.40
2022-12-16T11:19:38.850Z,32.10
2022-12-16T11:22:26.222Z,30.07
2022-12-16T11:25:24.219Z,31.80
2022-12-16T11:28:10.241Z,31.50
2022-12-16T11:30:57.490Z,29.93
2022-12-16T11:33:46.558Z,31.37
2022-12-16T11:36:36.858Z,31.90
2022-12-16T11:39:24.328Z,33.77
2022-12-16T11:42:13.927Z,31.33
2022-12-16T11:45:03.334Z,23.47
2022-12-16T11:47:58.675Z,23.17
2022-12-16T11:50:46.629Z,22.37
2022-12-16T11:53:49.195Z,19.63
2022-12-16T11:56:38.800Z,20.63
2022-12-16T11:59:30.869Z,20.33
2022-12-16T12:02:20.887Z,21.97
2022-12-16T12:05:17.890Z,21.83
2022-12-16T12:08:12.641Z,18.93
2022-12-16T12:11:16.431Z,19.97
2022-12-16T12:14:13.917Z,18.07
2022-12-16T12:17:28.997Z,18.57
2022-12-16T12:20:51.136Z,18.30
2022-12-16T12:23:49.650Z,17.53
2022-12-16T12:26:44.313Z,18.00
2022-12-16T12:29:37.759Z,18.40
2022-12-16T12:32:33.944Z,19.57
2022-12-16T12:35:32.001Z,20.63
2022-12-16T12:38:30.774Z,21.50
2022-12-16T12:41:22.696Z,20.03
2022-12-16T12:44:16.986Z,21.23
2022-12-16T12:47:10.272Z,19.67
2022-12-16T12:50:03.367Z,17.57
2022-12-16T12:53:20.020Z,16.43
2022-12-16T12:56:16.076Z,15.93
2022-12-16T12:59:03.607Z,16.60
2022-12-16T13:01:51.865Z,16.53
2022-12-16T13:04:39.870Z,17.30
2022-12-16T13:07:27.083Z,16.80
2022-12-16T13:10:50.939Z,16.73
2022-12-16T13:13:54.061Z,17.03
2022-12-16T13:17:25.842Z,19.37
2022-12-16T13:20:13.682Z,18.40
2022-12-16T13:22:59.742Z,18.70
2022-12-16T13:25:53.039Z,20.87
2022-12-16T13:28:45.437Z,18.93
2022-12-16T13:31:32.434Z,20.47
2022-12-16T13:34:24.300Z,19.83
2022-12-16T13:37:15.619Z,18.20
2022-12-16T13:40:20.542Z,22.33
2022-12-16T13:43:13.315Z,19.57
2022-12-16T13:46:01.975Z,22.30
2022-12-16T13:48:55.066Z,21.33
2022-12-16T13:52:17.763Z,22.50
2022-12-16T13:55:10.828Z,20.80
2022-12-16T13:57:59.589Z,22.60
2022-12-16T14:00:47.681Z,22.20
2022-12-16T14:03:38.811Z,21.87
2022-12-16T14:06:33.885Z,23.57
2022-12-16T14:09:22.812Z,23.80
2022-12-16T14:12:16.670Z,29.57
2022-12-16T14:15:10.305Z,27.07
2022-12-16T14:18:07.126Z,34.00
2022-12-16T14:20:58.120Z,30.57
2022-12-16T14:23:56.932Z,30.87
2022-12-16T14:26:45.178Z,29.80
2022-12-16T14:29:40.179Z,32.00
2022-12-16T14:32:38.056Z,30.20
2022-12-16T14:35:32.385Z,29.80
2022-12-16T14:38:48.214Z,42.80
2022-12-16T14:41:37.935Z,27.50
2022-12-16T14:44:24.880Z,26.23
2022-12-16T14:47:10.497Z,29.77
2022-12-16T14:50:08.670Z,28.60
2022-12-16T14:52:56.217Z,30.50
2022-12-16T14:55:47.682Z,29.97
2022-12-16T14:58:35.356Z,34.70
2022-12-16T15:01:27.314Z,30.30
2022-12-16T15:04:13.799Z,30.37
2022-12-16T15:07:01.495Z,25.43
2022-12-16T15:09:51.884Z,23.87
2022-12-16T15:12:41.837Z,25.00
2022-12-16T15:15:34.105Z,24.20
2022-12-16T15:18:20.758Z,28.70
2022-12-16T15:21:09.562Z,28.98
2022-12-16T15:23:59.079Z,29.17
2022-12-16T15:27:00.058Z,28.07
2022-12-16T15:29:48.322Z,27.20
2022-12-16T15:32:51.420Z,29.10
2022-12-16T15:35:46.057Z,27.20
2022-12-16T15:38:37.441Z,25.30
2022-12-16T15:41:24.558Z,24.30
2022-12-16T15:44:11.838Z,26.20
2022-12-16T15:46:57.418Z,28.97
2022-12-16T15:49:50.280Z,27.20
2022-12-16T15:53:06.010Z,27.83
2022-12-16T15:55:56.016Z,25.20
2022-12-16T15:58:45.826Z,24.35
2022-12-16T16:01:34.673Z,24.20
2022-12-16T16:04:20.743Z,22.20
2022-12-16T16:07:08.759Z,21.13
2022-12-16T16:09:56.699Z,19.33
2022-12-16T16:12:44.115Z,20.55
2022-12-16T16:15:32.060Z,18.95
2022-12-16T16:18:21.852Z,17.05
2022-12-16T16:21:08.056Z,17.00
2022-12-16T16:23:54.049Z,20.50
2022-12-16T16:26:41.979Z,19.65
2022-12-16T16:29:29.530Z,18.40
2022-12-16T16:32:15.418Z,17.23
2022-12-16T16:35:02.665Z,17.65
2022-12-16T16:37:48.003Z,14.93
2022-12-16T16:40:42.167Z,15.20
2022-12-16T16:43:28.000Z,14.85
2022-12-16T16:46:14.434Z,14.60
2022-12-16T16:49:00.758Z,15.20
2022-12-16T16:51:47.679Z,13.68
2022-12-16T16:54:33.278Z,15.65
2022-12-16T16:57:19.668Z,14.65
2022-12-16T17:00:05.387Z,15.18
2022-12-16T17:02:51.497Z,14.63
2022-12-16T17:05:37.726Z,14.02
2022-12-16T17:08:24.816Z,16.13
2022-12-16T17:11:10.277Z,16.20
2022-12-16T17:13:55.539Z,13.88
2022-12-16T17:16:41.104Z,16.02
2022-12-16T17:19:26.435Z,13.60
2022-12-16T17:22:12.324Z,13.38
2022-12-16T17:24:59.324Z,14.18
2022-12-16T17:27:45.109Z,13.38
2022-12-16T17:30:35.322Z,14.15
2022-12-16T17:33:21.369Z,14.77
2022-12-16T17:36:07.742Z,14.30
2022-12-16T17:38:56.956Z,16.05
2022-12-16T17:41:45.613Z,15.88
2022-12-16T17:44:31.756Z,15.82
2022-12-16T17:47:17.650Z,16.60
2022-12-16T17:50:03.471Z,16.17
2022-12-16T17:52:49.325Z,17.23
2022-12-16T17:55:34.940Z,16.80
2022-12-16T17:58:22.428Z,19.33
2022-12-16T18:01:07.979Z,16.70
2022-12-16T18:03:53.619Z,22.08
2022-12-16T18:06:39.421Z,24.02
2022-12-16T18:09:24.814Z,14.30
2022-12-16T18:12:10.249Z,14.90
2022-12-16T18:14:57.406Z,11.98
2022-12-16T18:17:42.769Z,13.60
2022-12-16T18:20:28.685Z,11.60
2022-12-16T18:23:14.328Z,11.82
2022-12-16T18:25:59.692Z,11.73
2022-12-16T18:28:45.671Z,12.63
2022-12-16T18:31:32.637Z,11.82
2022-12-16T18:34:18.179Z,12.55
2022-12-16T18:37:03.730Z,12.38
2022-12-16T18:39:49.074Z,12.30
2022-12-16T18:42:34.983Z,13.30
2022-12-16T18:45:20.434Z,14.55
2022-12-16T18:48:07.556Z,12.30
2022-12-16T18:50:53.715Z,12.10
2022-12-16T18:53:41.944Z,13.50
2022-12-16T18:56:28.366Z,11.85
2022-12-16T18:59:14.955Z,11.85
2022-12-16T19:02:00.736Z,12.65
2022-12-16T19:04:47.883Z,13.55
2022-12-16T19:07:34.257Z,12.45
2022-12-16T19:10:19.954Z,14.95
2022-12-16T19:13:05.951Z,13.65
2022-12-16T19:15:51.979Z,14.80
2022-12-16T19:18:37.995Z,20.95
2022-12-16T19:21:21.580Z,17.83
2022-12-16T19:24:07.803Z,16.13
2022-12-16T19:26:53.675Z,14.02
2022-12-16T19:29:42.834Z,18.23
2022-12-16T19:32:25.050Z,15.15
2022-12-16T19:35:10.644Z,15.45
2022-12-16T19:37:57.754Z,14.15
2022-12-16T19:40:43.299Z,17.25
2022-12-16T19:43:28.984Z,17.00
2022-12-16T19:46:29.952Z,17.15
2022-12-16T19:49:16.012Z,15.85
2022-12-16T19:52:01.971Z,15.93
2022-12-16T19:54:49.370Z,17.10
2022-12-16T19:57:35.088Z,16.40
2022-12-16T20:00:20.922Z,17.20
2022-12-16T20:03:06.855Z,19.77
2022-12-16T20:05:49.255Z,16.27
2022-12-16T20:08:34.959Z,17.90
2022-12-16T20:11:24.360Z,18.70
2022-12-16T20:14:11.434Z,21.52
2022-12-16T20:16:57.708Z,19.88
2022-12-16T20:19:43.922Z,20.05
2022-12-16T20:22:29.006Z,19.13
2022-12-16T20:25:15.180Z,21.08
2022-12-16T20:28:02.477Z,21.65
2022-12-16T20:30:48.141Z,20.85
2022-12-16T20:33:34.702Z,19.88
2022-12-16T20:36:23.293Z,19.90
2022-12-16T20:39:20.488Z,22.83
2022-12-16T20:42:06.095Z,21.15
2022-12-16T20:44:53.249Z,20.92
2022-12-16T20:47:41.604Z,21.65
2022-12-16T20:50:27.200Z,23.23
2022-12-16T20:53:12.731Z,25.15
2022-12-16T20:55:58.217Z,25.85
2022-12-16T21:02:22.714Z,24.10
2022-12-16T21:05:08.416Z,23.48
2022-12-16T21:07:55.350Z,24.45
2022-12-16T21:10:42.623Z,33.88
2022-12-16T21:13:30.403Z,31.75
2022-12-16T21:16:17.086Z,24.17
2022-12-16T21:19:04.400Z,22.48
2022-12-16T21:21:50.157Z,18.45
2022-12-16T21:24:36.334Z,20.55
2022-12-16T21:27:22.186Z,19.23
2022-12-16T21:30:08.158Z,17.73
2022-12-16T21:32:55.054Z,18.52
2022-12-16T21:35:43.818Z,20.13
2022-12-16T21:38:30.163Z,20.40
2022-12-16T21:41:15.832Z,19.92
2022-12-16T21:44:01.738Z,22.15
2022-12-16T21:46:43.874Z,19.25
2022-12-16T21:49:29.204Z,20.80
2022-12-16T21:52:16.441Z,21.58
2022-12-16T21:55:02.262Z,21.80
2022-12-16T21:57:47.985Z,25.38
2022-12-16T22:00:34.548Z,23.45
2022-12-16T22:03:20.087Z,22.08
2022-12-16T22:06:05.956Z,24.30
2022-12-16T22:08:53.230Z,26.05
2022-12-16T22:11:41.712Z,27.65
2022-12-16T22:14:26.991Z,29.98
2022-12-16T22:17:12.533Z,44.17
2022-12-16T22:19:58.589Z,34.42
2022-12-16T22:22:44.409Z,32.88
2022-12-16T22:25:31.696Z,33.45
2022-12-16T22:28:16.963Z,27.60
2022-12-16T22:31:02.827Z,32.55
2022-12-16T22:33:48.758Z,33.55
2022-12-16T22:36:21.601Z,24.92
2022-12-16T22:36:34.576Z,35.85
2022-12-16T22:39:20.305Z,37.38
2022-12-16T22:42:07.304Z,36.45
2022-12-16T22:44:53.064Z,36.30
2022-12-16T22:47:42.131Z,33.20
2022-12-16T22:50:27.965Z,33.78
2022-12-16T22:53:13.358Z,37.42
2022-12-16T22:59:05.937Z,32.78
2022-12-16T23:01:51.757Z,33.75
2022-12-16T23:04:37.447Z,29.17
2022-12-16T23:07:23.435Z,28.25
2022-12-16T23:10:09.104Z,25.17
2022-12-16T23:12:55.099Z,26.23
2022-12-16T23:15:43.509Z,25.55
2022-12-16T23:18:29.174Z,31.80
2022-12-16T23:21:14.534Z,30.88
2022-12-16T23:23:59.990Z,42.80
2022-12-16T23:26:53.763Z,28.55
2022-12-16T23:29:56.709Z,30.83
2022-12-16T23:32:44.155Z,32.53
2022-12-16T23:35:30.281Z,30.23
2022-12-16T23:38:19.953Z,33.05
2022-12-16T23:41:05.880Z,32.85
2022-12-16T23:43:51.713Z,31.70
2022-12-16T23:46:37.336Z,33.42
2022-12-16T23:49:24.620Z,37.83
2022-12-16T23:52:10.114Z,35.72
2022-12-16T23:54:56.096Z,41.17
2022-12-16T23:57:41.515Z,37.92
